Terminal Aerodrome Forecast
Issued by NWS Atlanta, GA

Home | Current Version | Previous Version | Text Only | Print | Product List | Glossary On
Versions: 1 2 3 4 5 6 7 8 9 10 11 12 13 14 15 16 17 18 19 20 21 22 23 24 25 26 27 28 29 30 31 32
000
FTUS42 KFFC 301923 AAA
TAFAHN
TAF AMD
KAHN 301923Z 3019/3118 07010KT P6SM -SHRA FEW010 BKN070
      TEMPO 3019/3023 4SM SHRA BKN007
     FM310100 09008KT P6SM SCT030 BKN100
     FM310600 09007KT P6SM BKN005 OVC030
     FM311400 09007KT 5SM BR BKN010
     FM311700 05006KT P6SM OVC025=

USA.gov is the U.S. government's official web portal to all federal, state and local government web resources and services.